createdAt,value
2018-09-16T00:02:15.447Z,5.07
2018-09-16T00:04:44.767Z,4.23
2018-09-16T00:07:13.923Z,4.60
2018-09-16T00:09:43.011Z,4.20
2018-09-16T00:12:12.111Z,3.80
2018-09-16T00:14:41.661Z,3.37
2018-09-16T00:17:11.131Z,4.53
2018-09-16T00:19:40.309Z,3.93
2018-09-16T00:22:09.477Z,3.50
2018-09-16T00:24:38.642Z,3.80
2018-09-16T00:27:07.753Z,4.27
2018-09-16T00:29:36.883Z,3.40
2018-09-16T00:32:11.621Z,4.00
2018-09-16T00:34:40.750Z,4.20
2018-09-16T00:37:09.882Z,4.43
2018-09-16T00:39:39.093Z,3.87
2018-09-16T00:42:08.239Z,4.03
2018-09-16T00:44:37.329Z,4.00
2018-09-16T00:47:06.538Z,4.10
2018-09-16T00:49:35.768Z,4.53
2018-09-16T00:52:05.667Z,4.57
2018-09-16T00:54:34.790Z,4.40
2018-09-16T00:57:03.921Z,4.03
2018-09-16T00:59:33.026Z,4.53
2018-09-16T01:02:02.171Z,3.93
2018-09-16T01:04:31.560Z,4.87
2018-09-16T01:07:00.661Z,4.20
2018-09-16T01:09:29.805Z,4.70
2018-09-16T01:11:58.948Z,4.83
2018-09-16T01:14:28.027Z,3.40
2018-09-16T01:16:57.132Z,3.60
2018-09-16T01:19:28.524Z,4.47
2018-09-16T01:21:57.651Z,3.50
2018-09-16T01:24:26.710Z,4.93
2018-09-16T01:26:55.812Z,4.30
2018-09-16T01:29:24.937Z,4.73
2018-09-16T01:31:54.004Z,4.80
2018-09-16T01:34:24.161Z,3.90
2018-09-16T01:36:53.902Z,5.03
2018-09-16T01:39:23.000Z,3.73
2018-09-16T01:41:53.899Z,4.53
2018-09-16T01:44:22.965Z,4.40
2018-09-16T01:46:56.486Z,4.40
2018-09-16T01:49:25.562Z,5.33
2018-09-16T01:51:54.645Z,5.23
2018-09-16T01:54:23.687Z,5.07
2018-09-16T01:56:52.746Z,4.47
2018-09-16T01:59:21.852Z,4.83
2018-09-16T02:01:50.945Z,5.20
2018-09-16T02:04:20.118Z,4.90
2018-09-16T02:06:49.235Z,5.43
2018-09-16T02:09:18.435Z,4.60
2018-09-16T02:11:47.528Z,5.40
2018-09-16T02:14:16.622Z,5.20
2018-09-16T02:16:45.935Z,5.10
2018-09-16T02:19:15.097Z,5.00
2018-09-16T02:21:44.204Z,6.13
2018-09-16T02:24:13.267Z,5.37
2018-09-16T02:26:42.349Z,5.13
2018-09-16T02:29:11.443Z,4.97
2018-09-16T02:31:40.582Z,5.40
2018-09-16T02:34:09.650Z,5.20
2018-09-16T02:36:38.808Z,5.23
2018-09-16T02:39:08.770Z,5.40
2018-09-16T02:41:37.925Z,5.60
2018-09-16T02:44:07.576Z,6.00
2018-09-16T02:46:36.828Z,5.33
2018-09-16T02:49:05.995Z,5.10
2018-09-16T02:51:35.094Z,5.73
2018-09-16T02:54:04.317Z,6.50
2018-09-16T02:56:33.433Z,5.40
2018-09-16T02:59:02.510Z,5.30
2018-09-16T03:01:31.644Z,4.60
2018-09-16T03:04:00.759Z,6.40
2018-09-16T03:06:32.282Z,5.60
2018-09-16T03:09:02.210Z,6.13
2018-09-16T03:11:31.463Z,6.10
2018-09-16T03:14:00.564Z,5.93
2018-09-16T03:16:29.778Z,6.23
2018-09-16T03:18:58.969Z,6.50
2018-09-16T03:21:28.170Z,7.10
2018-09-16T03:23:57.407Z,6.07
2018-09-16T03:26:26.499Z,6.37
2018-09-16T03:28:55.640Z,6.83
2018-09-16T03:31:24.715Z,5.60
2018-09-16T03:33:53.797Z,6.13
2018-09-16T03:36:22.876Z,6.20
2018-09-16T03:38:52.010Z,6.90
2018-09-16T03:41:21.118Z,7.20
2018-09-16T03:43:50.277Z,6.07
2018-09-16T03:46:19.427Z,7.10
2018-09-16T03:48:48.578Z,6.90
2018-09-16T03:51:17.775Z,7.03
2018-09-16T03:53:46.847Z,6.67
2018-09-16T03:56:15.912Z,6.73
2018-09-16T03:58:45.210Z,6.60
2018-09-16T04:01:14.256Z,6.83
2018-09-16T04:03:43.362Z,7.00
2018-09-16T04:06:12.483Z,5.33
2018-09-16T04:08:41.717Z,6.37
2018-09-16T04:11:10.839Z,6.90
2018-09-16T04:13:39.952Z,7.37
2018-09-16T04:16:09.133Z,7.10
2018-09-16T04:18:38.303Z,6.97
2018-09-16T04:21:07.633Z,7.70
2018-09-16T04:23:42.334Z,7.93
2018-09-16T04:26:11.480Z,7.73
2018-09-16T04:28:40.624Z,8.57
2018-09-16T04:31:09.765Z,8.90
2018-09-16T04:33:38.991Z,8.03
2018-09-16T04:36:08.120Z,7.57
2018-09-16T04:38:37.361Z,9.00
2018-09-16T04:41:06.858Z,8.50
2018-09-16T04:43:35.960Z,8.20
2018-09-16T04:46:05.324Z,9.37
2018-09-16T04:48:34.413Z,9.60
2018-09-16T04:51:03.517Z,7.23
2018-09-16T04:53:33.064Z,8.80
2018-09-16T04:56:02.132Z,10.13
2018-09-16T04:58:31.202Z,8.53
2018-09-16T05:01:00.361Z,8.03
2018-09-16T05:03:29.425Z,9.20
2018-09-16T05:05:58.526Z,8.70
2018-09-16T05:08:27.600Z,9.70
2018-09-16T05:10:56.757Z,9.33
2018-09-16T05:13:25.853Z,9.20
2018-09-16T05:15:54.921Z,8.60
2018-09-16T05:18:24.012Z,9.03
2018-09-16T05:20:53.046Z,9.10
2018-09-16T05:23:22.153Z,10.60
2018-09-16T05:25:51.218Z,9.13
2018-09-16T05:28:20.308Z,10.27
2018-09-16T05:30:59.804Z,8.90
2018-09-16T05:36:11.612Z,10.38
2018-09-16T05:38:43.725Z,10.10
2018-09-16T05:41:12.790Z,9.90
2018-09-16T05:43:41.916Z,9.20
2018-09-16T05:46:10.983Z,9.47
2018-09-16T05:48:40.086Z,9.43
2018-09-16T05:51:09.167Z,10.40
2018-09-16T05:53:38.643Z,9.07
2018-09-16T05:56:07.571Z,10.83
2018-09-16T05:58:36.683Z,10.37
2018-09-16T06:01:06.234Z,9.97
2018-09-16T06:03:35.472Z,9.30
2018-09-16T06:06:04.560Z,9.70
2018-09-16T06:08:33.651Z,11.10
2018-09-16T06:11:02.750Z,11.23
2018-09-16T06:13:31.810Z,11.70
2018-09-16T06:16:03.412Z,11.10
2018-09-16T06:18:32.465Z,10.37
2018-09-16T06:21:01.637Z,9.77
2018-09-16T06:23:30.690Z,9.67
2018-09-16T06:26:02.749Z,9.90
2018-09-16T06:28:31.777Z,10.20
2018-09-16T06:31:00.979Z,9.20
2018-09-16T06:33:30.100Z,9.33
2018-09-16T06:35:59.233Z,8.40
2018-09-16T06:38:28.300Z,9.20
2018-09-16T06:40:57.380Z,8.77
2018-09-16T06:43:26.558Z,9.87
2018-09-16T06:45:55.646Z,9.10
2018-09-16T06:48:24.764Z,8.70
2018-09-16T06:50:54.546Z,8.40
2018-09-16T06:53:23.850Z,9.27
2018-09-16T06:55:53.250Z,9.37
2018-09-16T06:58:22.312Z,9.60
2018-09-16T07:00:51.513Z,9.03
2018-09-16T07:03:20.716Z,8.07
2018-09-16T07:05:49.853Z,8.47
2018-09-16T07:08:19.072Z,9.50
2018-09-16T07:10:48.188Z,9.50
2018-09-16T07:13:17.286Z,8.40
2018-09-16T07:15:46.410Z,9.13
2018-09-16T07:18:15.507Z,8.50
2018-09-16T07:20:44.609Z,7.57
2018-09-16T07:23:14.912Z,8.33
2018-09-16T07:25:44.141Z,8.40
2018-09-16T07:28:13.301Z,8.13
2018-09-16T07:30:45.104Z,7.57
2018-09-16T07:33:14.180Z,7.50
2018-09-16T07:35:43.363Z,7.53
2018-09-16T07:38:12.457Z,6.73
2018-09-16T07:40:41.590Z,7.27
2018-09-16T07:43:10.678Z,6.27
2018-09-16T07:45:39.839Z,5.10
2018-09-16T07:48:08.952Z,5.20
2018-09-16T07:50:38.196Z,5.73
2018-09-16T07:53:07.580Z,5.93
2018-09-16T07:55:36.758Z,5.70
2018-09-16T07:58:06.088Z,5.47
2018-09-16T08:00:35.412Z,4.87
2018-09-16T08:03:04.632Z,6.30
2018-09-16T08:05:34.050Z,5.40
2018-09-16T08:08:03.711Z,5.20
2018-09-16T08:10:33.989Z,4.87
2018-09-16T08:13:03.417Z,4.77
2018-09-16T08:15:33.099Z,5.00
2018-09-16T08:18:02.385Z,4.70
2018-09-16T08:20:31.685Z,3.50
2018-09-16T08:23:01.638Z,4.37
2018-09-16T08:25:32.530Z,5.00
2018-09-16T08:28:03.954Z,4.17
2018-09-16T08:30:33.400Z,4.80
2018-09-16T08:33:07.870Z,4.80
2018-09-16T08:35:40.207Z,4.37
2018-09-16T08:38:09.665Z,4.10
2018-09-16T08:40:38.859Z,4.23
2018-09-16T08:43:09.366Z,4.20
2018-09-16T08:45:38.844Z,4.53
2018-09-16T08:48:08.528Z,4.43
2018-09-16T08:50:37.714Z,4.10
2018-09-16T08:53:06.964Z,4.00
2018-09-16T08:55:36.743Z,3.60
2018-09-16T08:58:06.324Z,2.93
2018-09-16T09:00:35.713Z,3.27
2018-09-16T09:03:05.003Z,3.57
2018-09-16T09:05:34.260Z,3.03
2018-09-16T09:08:04.023Z,3.93
2018-09-16T09:10:33.207Z,3.33
2018-09-16T09:13:02.337Z,3.40
2018-09-16T09:15:31.481Z,3.03
2018-09-16T09:18:00.783Z,3.00
2018-09-16T09:20:30.484Z,3.60
2018-09-16T09:23:01.676Z,3.63
2018-09-16T09:25:34.629Z,2.77
2018-09-16T09:28:05.373Z,2.60
2018-09-16T09:30:41.725Z,3.10
2018-09-16T09:33:11.172Z,2.80
2018-09-16T09:35:41.480Z,3.30
2018-09-16T09:38:10.913Z,3.50
2018-09-16T09:40:40.545Z,3.03
2018-09-16T09:43:16.386Z,3.30
2018-09-16T09:46:04.207Z,2.63
2018-09-16T09:48:40.619Z,3.00
2018-09-16T09:51:17.903Z,3.10
2018-09-16T09:57:00.773Z,3.17
2018-09-16T09:59:54.133Z,3.10
2018-09-16T10:06:22.367Z,3.57
2018-09-16T10:09:19.270Z,3.20
2018-09-16T10:15:30.402Z,2.60
2018-09-16T10:18:18.558Z,2.47
2018-09-16T11:08:53.747Z,2.70
2018-09-16T11:11:24.172Z,1.93
2018-09-16T11:14:00.266Z,2.00
2018-09-16T11:16:41.326Z,2.13
2018-09-16T11:19:14.623Z,1.90
2018-09-16T11:21:45.756Z,2.30
2018-09-16T11:24:16.741Z,1.73
2018-09-16T11:26:46.182Z,2.07
2018-09-16T11:29:15.761Z,1.70
2018-09-16T11:31:44.908Z,1.70
2018-09-16T11:34:18.412Z,1.93
2018-09-16T11:36:51.845Z,2.60
2018-09-16T11:39:21.320Z,2.20
2018-09-16T11:41:52.198Z,2.10
2018-09-16T11:44:39.105Z,2.13
2018-09-16T11:50:15.759Z,2.20
2018-09-16T13:23:37.647Z,6.03
2018-09-16T13:26:07.142Z,4.40
2018-09-16T13:28:36.326Z,5.00
2018-09-16T13:31:05.640Z,5.10
2018-09-16T13:33:34.839Z,4.60
2018-09-16T13:36:21.793Z,4.87
2018-09-16T13:51:53.615Z,4.85
2018-09-16T14:44:19.857Z,4.30
2018-09-16T15:28:57.948Z,2.40
2018-09-16T15:31:26.990Z,2.40
2018-09-16T16:19:49.769Z,2.53
2018-09-16T16:45:03.550Z,3.10
2018-09-16T18:22:30.418Z,6.20
2018-09-16T19:27:05.834Z,7.28
2018-09-16T19:47:20.790Z,7.10
2018-09-16T19:49:49.945Z,8.10
2018-09-16T19:52:19.146Z,7.70
2018-09-16T19:54:48.517Z,8.57
2018-09-16T19:57:17.845Z,7.37
2018-09-16T19:59:46.982Z,8.67
2018-09-16T20:02:16.180Z,7.97
2018-09-16T20:04:45.434Z,8.47
2018-09-16T20:07:14.642Z,9.17
2018-09-16T20:09:43.958Z,7.90
2018-09-16T20:12:13.329Z,8.07
2018-09-16T20:14:42.629Z,7.57
2018-09-16T20:17:12.011Z,7.00
2018-09-16T20:19:41.347Z,7.70
2018-09-16T20:22:10.898Z,7.23
2018-09-16T20:24:40.220Z,6.90
2018-09-16T20:27:09.416Z,7.63
2018-09-16T20:29:39.294Z,6.27
2018-09-16T20:32:09.546Z,7.70
2018-09-16T20:34:38.672Z,6.73
2018-09-16T20:37:08.022Z,6.57
2018-09-16T20:39:37.237Z,6.80
2018-09-16T20:42:06.517Z,6.37
2018-09-16T20:44:35.636Z,6.03
2018-09-16T20:47:04.765Z,7.10
2018-09-16T20:49:33.913Z,5.97
2018-09-16T20:52:05.531Z,5.97
2018-09-16T20:54:34.678Z,6.50
2018-09-16T20:57:03.836Z,6.30
2018-09-16T20:59:32.995Z,6.17
2018-09-16T21:02:02.202Z,7.00
2018-09-16T21:04:31.413Z,6.60
2018-09-16T21:07:00.556Z,6.37
2018-09-16T21:09:29.700Z,6.23
2018-09-16T21:11:58.902Z,6.70
2018-09-16T21:14:28.047Z,6.77
2018-09-16T21:16:57.397Z,6.50
2018-09-16T21:19:26.672Z,6.17
2018-09-16T21:21:55.808Z,6.17
2018-09-16T21:24:24.991Z,6.63
2018-09-16T21:26:54.276Z,6.90
2018-09-16T21:29:23.637Z,6.57
2018-09-16T21:31:52.824Z,6.57
2018-09-16T21:34:22.432Z,7.40
2018-09-16T21:36:51.658Z,7.10
2018-09-16T21:39:20.791Z,7.23
2018-09-16T21:41:49.946Z,7.10
2018-09-16T21:44:19.061Z,7.63
2018-09-16T21:46:48.168Z,6.90
2018-09-16T21:49:17.370Z,6.90
2018-09-16T21:51:46.572Z,6.50
2018-09-16T21:54:15.669Z,6.87
2018-09-16T21:56:44.769Z,6.70
2018-09-16T21:59:13.889Z,5.90
2018-09-16T22:01:43.180Z,6.27
2018-09-16T22:04:12.314Z,6.53
2018-09-16T22:06:41.612Z,6.87
2018-09-16T22:09:11.448Z,6.27
2018-09-16T22:11:40.562Z,5.97
2018-09-16T22:14:09.678Z,5.53
2018-09-16T22:16:38.945Z,6.40
2018-09-16T22:19:08.050Z,6.37
2018-09-16T22:21:37.159Z,6.23
2018-09-16T22:24:06.930Z,5.57
2018-09-16T22:26:37.913Z,6.50
2018-09-16T22:29:07.027Z,6.53
2018-09-16T22:31:36.240Z,5.63
2018-09-16T22:34:05.983Z,6.00
2018-09-16T22:36:35.313Z,7.07
2018-09-16T22:39:06.283Z,6.13
2018-09-16T22:41:35.984Z,6.43
2018-09-16T22:44:05.798Z,5.80
2018-09-16T22:46:35.191Z,6.60
2018-09-16T22:49:04.425Z,6.20
2018-09-16T22:51:33.622Z,7.00
2018-09-16T22:54:03.023Z,6.20
2018-09-16T22:56:32.584Z,6.90
2018-09-16T22:59:01.768Z,6.30
2018-09-16T23:01:30.840Z,5.93
2018-09-16T23:04:00.961Z,6.40
2018-09-16T23:06:33.309Z,7.50
2018-09-16T23:09:06.574Z,6.83
2018-09-16T23:11:36.286Z,7.10
2018-09-16T23:14:07.925Z,5.90
2018-09-16T23:16:37.844Z,6.70
2018-09-16T23:19:08.112Z,6.50
2018-09-16T23:21:37.886Z,7.00
2018-09-16T23:26:44.693Z,6.80
2018-09-16T23:29:13.794Z,6.83
2018-09-16T23:31:43.061Z,6.70
2018-09-16T23:34:13.991Z,6.57
2018-09-16T23:36:43.220Z,7.20
2018-09-16T23:39:12.450Z,7.53
2018-09-16T23:41:41.711Z,6.30
2018-09-16T23:44:10.881Z,6.13
2018-09-16T23:46:40.077Z,6.40
2018-09-16T23:49:09.265Z,6.87
2018-09-16T23:51:38.386Z,7.30
2018-09-16T23:54:07.443Z,5.90
2018-09-16T23:56:36.558Z,7.53
2018-09-16T23:59:05.669Z,6.40
